Tiempo atmosférico en la estación meteorológica de Cuéllar, Segovia (795 m.)



Fecha
DESCASC
Temp. máxima en grados centígrados (hora)
DESCASC
Temp. mínima en grados centígrados (hora)
DESCASC
Temp. media en grados centígrados
DESCASC
Racha de viento máxima en m/sg (hora)
DESCASC
Velocidad máxima media en intervalos de 10 minutos(hora)
DESCASC
Precipitaciones diarias en mm
DESCASC
Precipitaciones de 00:00 a 06:00 en mm
DESCASC
Precipitaciones de 06:00 a 12:00 en mm
DESCASC
Precipitaciones de 12:00 a 18:00 en mm
DESCASC
Precipitaciones de 18:00 a 24:00 en mm
DESCASC
28-02-2021 15.3 (14:50) -0.8 (01:00) 7.3 7.78 (20:50) 5 (08:30) 0.2 0 0 0 0.2
27-02-2021 18.6 (15:10) -0.5 (03:00) 9.1 10.83 (19:20) 8.33 (19:20) 0 0 0 0 0
26-02-2021 17.7 (16:50) 4.4 (23:59) 11.1 7.78 (05:00) 5.83 (07:50) 0 0 0 0 0
25-02-2021 15.6 (15:40) -0.3 (00:00) 7.7 7.22 (14:50) 4.44 (14:10) 0 0 0 0 0
24-02-2021 16.8 (13:40) -3.7 (-00:0) 6.5 13.61 (14:30) 7.78 (14:30) 0 0 0 0 0
23-02-2021 15.4 (16:10) -3.6 (-00:0) 5.9 8.33 (14:30) 5 (14:30) 0.2 0 0.2 0 0
22-02-2021 10 (14:40) -1.9 (-00:0) 4.1 9.44 (03:20) 5 (03:20) 5.8 5.4 0.4 0 0
21-02-2021 13 (01:20) 2.7 (00:00) 7.9 10.83 (12:40) 7.22 (04:50) 7.6 0 0 2.6 5
20-02-2021 14.7 (17:00) 4.7 (00:00) 9.7 16.11 (14:40) 9.72 (14:30) 0 0 0 0 0
19-02-2021 16.7 (15:40) 0.6 (00:00) 8.7 12.5 (16:30) 7.78 (16:30) 0 0 0 0 0
18-02-2021 15.2 (15:40) 0.6 (00:00) 7.9 15.28 (14:40) 7.78 (13:30) 0 0 0 0 0
17-02-2021 16 (13:40) 1.8 (00:00) 8.9 8.89 (13:50) 5 (15:10) 0 0 0 0 0
16-02-2021 15 (14:50) -2.4 (-00:0) 6.3 10 (13:30) 5.83 (13:30) 0 0 0 0 0
15-02-2021 20 (15:30) -2.9 (-00:0) 8.5 7.22 (17:40) 4.17 (17:30) 0.2 0 0.2 0 0
14-02-2021 17.6 (15:40) -2.9 (-00:0) 7.4 4.72 (14:00) 3.06 (13:20) 0 0 0 0 0
13-02-2021 14.1 (17:10) -2.5 (-00:0) 5.8 6.67 (14:20) 3.33 (14:20) 0 0 0 0 0
12-02-2021 12.5 (14:00) -0.3 (00:00) 6.1 10.56 (13:10) 6.39 (13:20) 4.2 4 0.2 0 0
11-02-2021 13.5 (13:20) 3.7 (00:00) 8.6 6.39 (17:40) 3.61 (11:30) 1.8 1.4 0 0.4 0
10-02-2021 11.7 (16:30) 0.7 (00:00) 6.2 13.89 (02:00) 6.67 (03:40) 8 8 0 0 0
09-02-2021 7.3 (11:50) 2.9 (00:00) 5.1 15 (13:40) 8.89 (13:40) 23.4 5.4 3.2 6.6 8.2
08-02-2021 7.9 (14:10) 4.3 (00:00) 6.1 11.94 (14:00) 6.11 (11:40) 10.8 8.2 1.2 1.2 0.2
07-02-2021 8.5 (15:30) -0.1 (00:00) 4.2 10 (16:20) 5.83 (00:30) 3.6 0 0 1 2.6
06-02-2021 8.2 (11:20) 3.6 (00:00) 5.9 11.67 (16:30) 7.78 (16:30) 1.4 0.4 0.6 0.4 0
05-02-2021 15.4 (15:00) 4.4 (00:00) 9.9 10.83 (23:10) 7.5 (23:10) 3.2 0 0 0 3.2
04-02-2021 14 (13:40) 5.1 (00:00) 9.5 9.17 (16:50) 7.22 (16:30) 1.6 1.2 0.2 0 0.2
03-02-2021 11.9 (13:00) 0.5 (00:00) 6.2 8.89 (13:50) 4.72 (13:20) 7.6 0 0.4 0.6 6.6
02-02-2021 14.9 (15:50) 4.3 (23:59) 9.6 9.72 (14:30) 5.56 (15:20) 0 0 0 0 0
01-02-2021 12.4 (16:50) 5.2 (00:00) 8.8 13.33 (02:10) 8.33 (02:10) 0 0 0 0 0

Gráficas

Temp. máximas Temp. mínimas Temp. medias Precipitaciones Rachas de viento máximas Velocidades máximas media en intervalos de 10 minutos

Datos horarios

Fecha y hora oficial Temperatura (ºC) Velocidad del viento (km/h) Dirección del viento Racha (km/h) Dirección de racha Precipitación (mm) Presión (hPa) Tendencia (hPa) Humedad (%)
2021-03-02 23:00:00 2.6 0 Calma 7 Este 0 -- -- 94
2021-03-02 22:00:00 4.8 2 Oeste 6 Sudoeste 0 -- -- 97
2021-03-02 21:00:00 6.6 2 Norte 9 Noroeste 0 -- -- 92
2021-03-02 20:00:00 9.5 7 Noroeste 12 Oeste 0 -- -- 82
2021-03-02 19:00:00 11.5 7 Norte 9 Norte 0 -- -- 77
2021-03-02 18:00:00 13.2 5 Nordeste 12 Nordeste 0 -- -- 68
2021-03-02 17:00:00 14.4 7 Nordeste 11 Este 0 -- -- 59
2021-03-02 16:00:00 13.2 4 Norte 10 Sudoeste 0.6 -- -- 71
2021-03-02 15:00:00 14 5 Oeste 14 Sudoeste 0 -- -- 58
2021-03-02 14:00:00 15.3 7 Sudeste 17 Nordeste 0 -- -- 51
2021-03-02 13:00:00 15.6 6 Norte 13 Este 0 -- -- 54
2021-03-02 12:00:00 14.3 8 Este 16 Este 0 -- -- 58
2021-03-02 11:00:00 13.4 4 Noroeste 9 Noroeste 0 -- -- 63
2021-03-02 10:00:00 11.6 5 Este 10 Sur 0 -- -- 69
2021-03-02 09:00:00 7.4 2 Nordeste 5 Nordeste 0 -- -- 97
2021-03-02 08:00:00 2.2 0 Calma 5 Este 0 -- -- 99
2021-03-02 07:00:00 1.3 0 Calma 5 Sudeste 0 -- -- 99
2021-03-02 06:00:00 1.8 3 Este 5 Este 0 -- -- 99
2021-03-02 05:00:00 3.8 2 Nordeste 4 Este 0 -- -- 98
2021-03-02 04:00:00 3 2 Este 3 Este 0 -- -- 96
2021-03-02 03:00:00 4.9 2 Sur 5 Este 0 -- -- 95
2021-03-02 02:00:00 5 0 Calma 4 Este 0 -- -- 95
2021-03-02 01:00:00 5.1 3 Sudeste 9 Este 0 -- -- 96
2021-03-02 00:00:00 2.6 3 Este 5 Sudeste 0 -- -- 96
2021-03-01 23:00:00 4.3 0 Calma 6 Noroeste 0 -- -- 94
2021-03-01 22:00:00 3.8 0 Calma 7 Nordeste 0 -- -- 92
2021-03-01 21:00:00 5.6 4 Este 13 Este 0 -- -- 88
2021-03-01 20:00:00 8.5 8 Nordeste 10 Nordeste 0 -- -- 84
2021-03-01 19:00:00 9.5 4 Sur 12 Sudoeste 0 -- -- 78
2021-03-01 18:00:00 9.9 5 Sudoeste 12 Sudoeste 0 -- -- 79
2021-03-01 17:00:00 10.5 9 Sudoeste 26 Sur 0 -- -- 72
2021-03-01 16:00:00 12.2 19 Sur 34 Sur 0 -- -- 60
2021-03-01 15:00:00 11.8 13 Sur 35 Sudeste 0 -- -- 61
2021-03-01 14:00:00 13 17 Sudeste 31 Sur 0 -- -- 57
2021-03-01 13:00:00 13.6 15 Sudeste 26 Sudeste 0 -- -- 58
2021-03-01 12:00:00 13.7 4 Oeste 13 Nordeste 0 -- -- 53
2021-03-01 11:00:00 12.8 5 Norte 15 Nordeste 0 -- -- 60
2021-03-01 10:00:00 9 10 Nordeste 15 Nordeste 0 -- -- 79
2021-03-01 09:00:00 6.3 6 Norte 13 Nordeste 0 -- -- 92
2021-03-01 08:00:00 -0.1 3 Oeste 7 Noroeste 0 -- -- 99
2021-03-01 07:00:00 -0.3 0 Calma 8 Sudeste 0 -- -- 99
2021-03-01 06:00:00 -0.7 3 Este 8 Este 0 -- -- 99
2021-03-01 05:00:00 0.3 2 Sudeste 4 Nordeste 0 -- -- 97
2021-03-01 04:00:00 0.1 3 Este 4 Este 0 -- -- 97
2021-03-01 03:00:00 1.3 2 Este 6 Este 0 -- -- 92
2021-03-01 02:00:00 3.5 0 Calma 9 Sudeste 0 -- -- 91
2021-03-01 01:00:00 6.6 0 Calma 6 Sudoeste 0 -- -- 80
2021-03-01 00:00:00 5.7 2 Nordeste 9 Sudeste 0 -- -- 82
2021-02-28 23:00:00 6.3 0 Calma 13 Sudeste 0 -- -- 87
2021-02-28 22:00:00 7 3 Este 17 Sur 0.2 -- -- 89
2021-02-28 21:00:00 9 9 Sudeste 28 Sur 0 -- -- 76
2021-02-28 20:00:00 10.8 7 Sudoeste 25 Sudoeste 0 -- -- 62
2021-02-28 19:00:00 10.5 5 Sudoeste 18 Sudoeste 0 -- -- 59
2021-02-28 18:00:00 12.4 9 Sudoeste 22 Oeste 0 -- -- 52
2021-02-28 17:00:00 13.2 4 Sudoeste 7 Oeste 0 -- -- 57
2021-02-28 16:00:00 14.8 3 Norte 9 Nordeste 0 -- -- 48
2021-02-28 15:00:00 14.2 5 Nordeste 15 Nordeste 0 -- -- 48
2021-02-28 14:00:00 13.8 8 Norte 15 Norte 0 -- -- 50
2021-02-28 13:00:00 11.5 9 Norte 14 Noroeste 0 -- -- 57
2021-02-28 12:00:00 10.7 4 Noroeste 12 Norte 0 -- -- 58
2021-02-28 11:00:00 8.8 5 Nordeste 17 Nordeste 0 -- -- 63
2021-02-28 10:00:00 5.8 11 Nordeste 22 Nordeste 0 -- -- 73
2021-02-28 09:00:00 2.7 18 Nordeste 23 Nordeste 0 -- -- 81
2021-02-28 08:00:00 -0.2 17 Norte 23 Norte 0 -- -- 90
2021-02-28 07:00:00 0.5 18 Norte 23 Norte 0 -- -- 88
2021-02-28 06:00:00 -0.3 4 Este 11 Sudeste 0 -- -- 90
2021-02-28 05:00:00 1.1 6 Nordeste 15 Norte 0 -- -- 88
2021-02-28 04:00:00 0.6 10 Este 17 Este 0 -- -- 90
2021-02-28 03:00:00 1.6 9 Nordeste 19 Norte 0 -- -- 89
2021-02-28 02:00:00 0.7 5 Nordeste 11 Nordeste 0 -- -- 92
2021-02-28 01:00:00 -0.8 0 Calma 16 Este 0 -- -- 91
2021-02-28 00:00:00 0.9 5 Este 10 Este 0 -- -- 87
2021-02-27 23:00:00 3.1 5 Este 25 Norte 0 -- -- 79
2021-02-27 22:00:00 5.1 13 Norte 23 Norte 0 -- -- 71
2021-02-27 21:00:00 5.6 8 Este 21 Norte 0 -- -- 71
2021-02-27 20:00:00 8.5 20 Norte 39 Norte 0 -- -- 64
2021-02-27 19:00:00 10.5 25 Norte 33 Norte 0 -- -- 59
2021-02-27 18:00:00 14.1 23 Norte 32 Norte 0 -- -- 54
2021-02-27 17:00:00 16.4 19 Norte 25 Norte 0 -- -- 50
2021-02-27 16:00:00 18.1 17 Norte 23 Norte 0 -- -- 42
2021-02-27 15:00:00 18.3 10 Norte 20 Norte 0 -- -- 42
2021-02-27 14:00:00 16.9 12 Norte 23 Norte 0 -- -- 44
2021-02-27 13:00:00 15.5 12 Nordeste 19 Nordeste 0 -- -- 53
2021-02-27 12:00:00 13 13 Nordeste 19 Nordeste 0 -- -- 64
2021-02-27 11:00:00 9.7 15 Nordeste 19 Nordeste 0 -- -- 77
2021-02-27 10:00:00 4.9 5 Este 8 Sudeste 0 -- -- 92
2021-02-27 09:00:00 4 0 Calma 5 Sudeste 0 -- -- 92
2021-02-27 08:00:00 2 4 Este 16 Este 0 -- -- 96
2021-02-27 07:00:00 2.2 8 Este 11 Este 0 -- -- 97
2021-02-27 06:00:00 2 9 Este 14 Este 0 -- -- 97
2021-02-27 05:00:00 3.3 11 Este 15 Este 0 -- -- 97
2021-02-27 04:00:00 2.5 6 Este 10 Este 0 -- -- 100
2021-02-27 03:00:00 -0.5 4 Este 6 Este 0 -- -- 97
2021-02-27 02:00:00 0.1 5 Este 13 Nordeste 0 -- -- 96
2021-02-27 01:00:00 3.2 5 Este 10 Nordeste 0 -- -- 94
2021-02-27 00:00:00 4.4 6 Este 15 Nordeste 0 -- -- 91
2021-02-26 23:00:00 6.9 10 Nordeste 16 Nordeste 0 -- -- 86
2021-02-26 22:00:00 7.4 8 Este 15 Este 0 -- -- 85
2021-02-26 21:00:00 7.9 8 Este 22 Norte 0 -- -- 85
2021-02-26 20:00:00 9.7 17 Norte 22 Norte 0 -- -- 77
2021-02-26 19:00:00 10.6 12 Norte 18 Norte 0 -- -- 72
2021-02-26 18:00:00 13.3 13 Norte 21 Norte 0 -- -- 66
2021-02-26 17:00:00 17.2 10 Nordeste 22 Norte 0 -- -- 48
2021-02-26 16:00:00 17.1 15 Norte 25 Nordeste 0 -- -- 49
2021-02-26 15:00:00 15.7 15 Nordeste 24 Norte 0 -- -- 55
2021-02-26 14:00:00 16.1 14 Nordeste 20 Nordeste 0 -- -- 53
2021-02-26 13:00:00 14.3 15 Norte 21 Norte 0 -- -- 62
2021-02-26 12:00:00 12.7 13 Nordeste 18 Nordeste 0 -- -- 68
2021-02-26 11:00:00 11.8 12 Nordeste 17 Norte 0 -- -- 71
2021-02-26 10:00:00 8.9 6 Nordeste 17 Este 0 -- -- 79
2021-02-26 09:00:00 6 9 Este 21 Este 0 -- -- 86
2021-02-26 08:00:00 4.7 17 Nordeste 25 Norte 0 -- -- 91
2021-02-26 07:00:00 5.2 9 Nordeste 24 Norte 0 -- -- 89
2021-02-26 06:00:00 6.2 20 Nordeste 28 Norte 0 -- -- 84
2021-02-26 05:00:00 5.6 21 Norte 28 Nordeste 0 -- -- 88
2021-02-26 04:00:00 6.1 17 Norte 23 Norte 0 -- -- 86
2021-02-26 03:00:00 6 17 Norte 22 Norte 0 -- -- 86
2021-02-26 02:00:00 5.7 2 Este 9 Nordeste 0 -- -- 91
2021-02-26 01:00:00 6.2 5 Nordeste 9 Nordeste 0 -- -- 84
2021-02-26 00:00:00 7.3 11 Nordeste 18 Nordeste 0 -- -- 82
2021-02-25 23:00:00 6.2 2 Nordeste 9 Nordeste 0 -- -- 87
2021-02-25 22:00:00 7.5 6 Nordeste 13 Nordeste 0 -- -- 80
2021-02-25 21:00:00 6.5 5 Este 11 Este 0 -- -- 84
2021-02-25 20:00:00 8.4 0 Calma 11 Norte 0 -- -- 80
2021-02-25 19:00:00 10.3 4 Norte 9 Norte 0 -- -- 75
2021-02-25 18:00:00 13.3 3 Oeste 10 Sudoeste 0 -- -- 58
2021-02-25 17:00:00 14.4 5 Sudoeste 17 Sudoeste 0 -- -- 51
2021-02-25 16:00:00 14.9 9 Sudoeste 16 Sudeste 0 -- -- 50
2021-02-25 15:00:00 14.4 11 Sur 26 Sur 0 -- -- 52
2021-02-25 14:00:00 14.5 13 Sudeste 22 Sudeste 0 -- -- 52
2021-02-25 13:00:00 14.1 13 Sudeste 24 Sur 0 -- -- 55
2021-02-25 12:00:00 13.1 8 Sudeste 14 Sudeste 0 -- -- 61
2021-02-25 11:00:00 9.3 4 Sudeste 11 Nordeste 0 -- -- 75
2021-02-25 10:00:00 6.1 7 Este 10 Este 0 -- -- 96
2021-02-25 09:00:00 2.2 2 Sudeste 6 Norte 0 -- -- 99
2021-02-25 08:00:00 0.3 0 Calma 4 Sur 0 -- -- 97
2021-02-25 07:00:00 1.6 2 Noroeste 12 Sudeste 0 -- -- 98
2021-02-25 06:00:00 1.1 0 Calma 7 Este 0 -- -- 99
2021-02-25 05:00:00 -0.2 4 Este 5 Este 0 -- -- 99
2021-02-25 04:00:00 0.1 6 Este 9 Este 0 -- -- 97
2021-02-25 03:00:00 1.8 0 Calma 6 Este 0 -- -- 97
2021-02-25 02:00:00 2 4 Este 8 Nordeste 0 -- -- 95
2021-02-25 01:00:00 2.2 4 Este 9 Este 0 -- -- 94
2021-02-25 00:00:00 3.9 4 Este 8 Nordeste 0 -- -- 91
2021-02-24 23:00:00 4.7 4 Este 10 Este 0 -- -- 91
2021-02-24 22:00:00 5.5 4 Nordeste 8 Nordeste 0 -- -- 85
2021-02-24 21:00:00 7.1 4 Nordeste 9 Sudeste 0 -- -- 79
2021-02-24 20:00:00 9.9 7 Sur 21 Sur 0 -- -- 69
2021-02-24 19:00:00 11.4 13 Sudeste 35 Sudeste 0 -- -- 65
2021-02-24 18:00:00 13.5 16 Sur 35 Sur 0 -- -- 56
2021-02-24 17:00:00 14.7 19 Sur 35 Sudoeste 0 -- -- 51
2021-02-24 16:00:00 15.6 18 Sudoeste 44 Sur 0 -- -- 46
2021-02-24 15:00:00 16.1 23 Sur 49 Sur 0 -- -- 46
2021-02-24 14:00:00 16.3 19 Sur 33 Sur 0 -- -- 48
2021-02-24 13:00:00 15.4 10 Sur 18 Sudoeste 0 -- -- 53
2021-02-24 12:00:00 13.8 4 Sudeste 11 Este 0 -- -- 57
2021-02-24 11:00:00 11.4 4 Este 8 Este 0 -- -- 65
2021-02-24 10:00:00 7.1 0 Calma 8 Este 0 -- -- 84
2021-02-24 09:00:00 1.1 0 Calma 9 Este 0 -- -- 97
2021-02-24 08:00:00 -3.4 4 Este 6 Este 0 -- -- 99
2021-02-24 07:00:00 -3.7 6 Este 8 Este 0 -- -- 98
2021-02-24 06:00:00 -2.9 3 Este 7 Este 0 -- -- 100
2021-02-24 05:00:00 -3.4 0 Calma 6 Este 0 -- -- 99
2021-02-24 04:00:00 -3.4 2 Este 5 Sudeste 0 -- -- 98
2021-02-24 03:00:00 -2.7 3 Sudeste 5 Este 0 -- -- 97
2021-02-24 02:00:00 -2.2 0 Calma 5 Sudeste 0 -- -- 98
2021-02-24 01:00:00 -1 4 Sudeste 10 Este 0 -- -- 96
2021-02-24 00:00:00 0.9 2 Sudeste 12 Sur 0 -- -- 95
2021-02-23 23:00:00 0.8 3 Este 5 Este 0 -- -- 98
2021-02-23 22:00:00 2.5 3 Este 8 Este 0 -- -- 93
2021-02-23 21:00:00 3 5 Este 11 Nordeste 0 -- -- 87
2021-02-23 20:00:00 7.8 0 Calma 14 Sudoeste 0 -- -- 68
2021-02-23 19:00:00 10.9 9 Sur 20 Sur 0 -- -- 58
2021-02-23 18:00:00 13.9 10 Sur 22 Sur 0 -- -- 48
2021-02-23 17:00:00 14.5 13 Sudoeste 25 Sur 0 -- -- 50
2021-02-23 16:00:00 14.7 12 Sudeste 24 Sur 0 -- -- 50
2021-02-23 15:00:00 14.3 10 Sudoeste 30 Sudoeste 0 -- -- 50
2021-02-23 14:00:00 13.8 9 Sudoeste 23 Sur 0 -- -- 53
2021-02-23 13:00:00 13.3 4 Nordeste 10 Noroeste 0 -- -- 53
2021-02-23 12:00:00 10.9 4 Norte 8 Este 0 -- -- 61
2021-02-23 11:00:00 8.7 2 Sur 8 Oeste 0 -- -- 67
2021-02-23 10:00:00 4.2 4 Oeste 8 Oeste 0.2 -- -- 82
2021-02-23 09:00:00 0.3 0 Calma 5 Este 0 -- -- 94
2021-02-23 08:00:00 -3.3 3 Este 8 Este 0 -- -- 99
2021-02-23 07:00:00 -2.9 6 Este 9 Este 0 -- -- 100
2021-02-23 06:00:00 -3.4 6 Este 10 Este 0 -- -- 99
2021-02-23 05:00:00 -3.6 4 Este 5 Este 0 -- -- 98
2021-02-23 04:00:00 -2 0 Calma 8 Este 0 -- -- 100
2021-02-23 03:00:00 -3.2 5 Este 6 Este 0 -- -- 99
2021-02-23 02:00:00 -3.1 3 Sudeste -- -- 0 -- -- 99
2021-02-23 01:00:00 -1.8 0 Calma 6 Este 0 -- -- 99
2021-02-23 00:00:00 -1.9 3 Sudeste 5 Sudeste 0 -- -- 98
2021-02-22 23:00:00 -0.4 0 Calma 6 Este 0 -- -- 97
2021-02-22 22:00:00 1.3 2 Este 10 Este 0 -- -- 96
2021-02-22 21:00:00 1.4 5 Este 10 Este 0 -- -- 94
2021-02-22 20:00:00 3.2 0 Calma 4 Sudeste 0 -- -- 92
2021-02-22 19:00:00 6.1 3 Sudeste 12 Oeste 0 -- -- 72
2021-02-22 18:00:00 8.4 5 Oeste 10 Sudoeste 0 -- -- 66
2021-02-22 17:00:00 8.6 5 Sudoeste 11 Sudoeste 0 -- -- 63
2021-02-22 16:00:00 8.9 4 Sudoeste 12 Noroeste 0 -- -- 62
2021-02-22 15:00:00 10 7 Noroeste 17 Oeste 0 -- -- 63
2021-02-22 14:00:00 8.8 6 Sudoeste 13 Sur 0 -- -- 67
2021-02-22 13:00:00 6.4 5 Sudoeste 14 Sudoeste 0 -- -- 76
2021-02-22 12:00:00 4.9 8 Oeste 18 Oeste 0 -- -- 83
2021-02-22 11:00:00 3.8 10 Oeste 21 Oeste 0 -- -- 91
2021-02-22 10:00:00 3.3 7 Oeste 15 Sudoeste 0 -- -- 98
2021-02-22 09:00:00 2.9 5 Sudoeste 11 Oeste 0 -- -- 99
2021-02-22 08:00:00 2.8 5 Sudoeste 8 Oeste 0 -- -- 99
2021-02-22 07:00:00 2.4 2 Sudoeste 5 Sudoeste 0.4 -- -- 99
2021-02-22 06:00:00 1.6 0 Calma 7 Oeste 0.6 -- -- 98
2021-02-22 05:00:00 1.3 5 Oeste 22 Noroeste 1.6 -- -- 97
2021-02-22 04:00:00 2.5 15 Noroeste 34 Oeste 1.4 -- -- 96
2021-02-22 03:00:00 3.1 13 Oeste 24 Oeste 0.4 -- -- 97
2021-02-22 02:00:00 2.7 6 Sudoeste 22 Oeste 0.4 -- -- 98
2021-02-22 01:00:00 2.9 12 Oeste 21 Sudoeste 1 -- -- 98
2021-02-22 00:00:00 3 6 Sudoeste 12 Sur 1 -- -- 99
2021-02-21 23:00:00 2.7 9 Sur 15 Sur 1.2 -- -- 98
2021-02-21 22:00:00 3.4 7 Sudoeste 17 Sudoeste 0.8 -- -- 98
2021-02-21 21:00:00 3.9 10 Sudoeste 29 Oeste 0.6 -- -- 98
2021-02-21 20:00:00 4.7 15 Oeste 27 Oeste 0.2 -- -- 97
2021-02-21 19:00:00 5.8 11 Oeste 19 Sudoeste 1.2 -- -- 97
2021-02-21 18:00:00 6.5 10 Oeste 18 Oeste 1.4 -- -- 96
2021-02-21 17:00:00 8 4 Noroeste 9 Noroeste 0.6 -- -- 91
2021-02-21 16:00:00 8 6 Oeste 23 Oeste 0.6 -- -- 89
2021-02-21 15:00:00 11.5 13 Sur 21 Sur 0 -- -- 61
2021-02-21 14:00:00 11.4 11 Sudeste 27 Sur 0 -- -- 61
2021-02-21 13:00:00 12 15 Sur 39 Sur 0 -- -- 57
2021-02-21 12:00:00 12.3 16 Sur 29 Sur 0 -- -- 54
2021-02-21 11:00:00 12.4 9 Sudeste 18 Sudeste 0 -- -- 56
2021-02-21 10:00:00 10 8 Este 20 Este 0 -- -- 63
2021-02-21 09:00:00 6.6 9 Norte 14 Norte 0 -- -- 75
2021-02-21 08:00:00 7.7 8 Este 22 Este 0 -- -- 68
2021-02-21 07:00:00 7.7 15 Este 27 Este 0 -- -- 70
2021-02-21 06:00:00 9 19 Este 35 Este 0 -- -- 67
2021-02-21 05:00:00 9.8 23 Este 36 Este 0 -- -- 64
2021-02-21 04:00:00 9.8 18 Sudeste 29 Sudeste 0 -- -- 62
2021-02-21 03:00:00 10.3 21 Este 32 Nordeste 0 -- -- 55
2021-02-21 02:00:00 10.2 13 Este 39 Este 0 -- -- 47
2021-02-21 01:00:00 12.5 17 Sudeste 31 Sur 0 -- -- 36
2021-02-21 00:00:00 11.4 9 Sur 24 Sudeste 0 -- -- 38
2021-02-20 23:00:00 11.7 12 Sudeste 24 Este 0 -- -- 36
2021-02-20 22:00:00 11.6 18 Este 29 Sudeste 0 -- -- 36
2021-02-20 21:00:00 11.1 10 Sudeste 30 Sudeste 0 -- -- 41
2021-02-20 20:00:00 11.3 7 Sur 31 Sudeste 0 -- -- 43
2021-02-20 19:00:00 13.1 13 Sur 40 Sudoeste 0 -- -- 39
2021-02-20 18:00:00 14.3 31 Sur 49 Sudeste 0 -- -- 35
2021-02-20 17:00:00 14.7 22 Sur 51 Sur 0 -- -- 35
2021-02-20 16:00:00 14.3 31 Sur 51 Sur 0 -- -- 37
2021-02-20 15:00:00 13.4 28 Sur 58 Sur 0 -- -- 40
2021-02-20 14:00:00 13.4 26 Sur 53 Sur 0 -- -- 38
2021-02-20 13:00:00 13.2 19 Sur 33 Sudoeste 0 -- -- 39
2021-02-20 12:00:00 12.2 16 Sur 46 Sudoeste 0 -- -- 44
2021-02-20 11:00:00 11.5 28 Sur 44 Sudeste 0 -- -- 49
2021-02-20 10:00:00 11 21 Sur 39 Sudoeste 0 -- -- 51
2021-02-20 09:00:00 10.9 19 Sur 39 Sur 0 -- -- 51
2021-02-20 08:00:00 10.9 25 Sur 43 Sudeste 0 -- -- 54
2021-02-20 07:00:00 10.7 27 Sur 43 Sur 0 -- -- 54
2021-02-20 06:00:00 10.7 16 Sur 33 Sur 0 -- -- 54
2021-02-20 05:00:00 10.5 16 Sudeste 42 Sur 0 -- -- 50
2021-02-20 04:00:00 9.9 18 Sudeste 27 Sudeste 0 -- -- 51
2021-02-20 03:00:00 10.1 12 Sudeste 33 Sur 0 -- -- 53
2021-02-20 02:00:00 9.1 10 Sur 20 Sur 0 -- -- 61
2021-02-20 01:00:00 5.4 3 Este 8 Sur 0 -- -- 74
2021-02-20 00:00:00 9.6 4 Sur 19 Sur 0 -- -- 59
2021-02-19 23:00:00 10.3 10 Sur 18 Sur 0 -- -- 60
2021-02-19 22:00:00 10.1 7 Sur 17 Sudeste 0 -- -- 58
2021-02-19 21:00:00 6.9 3 Sudeste 8 Sudeste 0 -- -- 67
2021-02-19 20:00:00 7 3 Nordeste 4 Nordeste 0 -- -- 78
2021-02-19 19:00:00 11.1 2 Sudoeste 16 Sur 0 -- -- 58
2021-02-19 18:00:00 15.3 13 Sur 34 Sur 0 -- -- 44
2021-02-19 17:00:00 15.6 24 Sur 45 Sur 0 -- -- 42
2021-02-19 16:00:00 16.2 25 Sur 44 Sudeste 0 -- -- 42
2021-02-19 15:00:00 16.4 24 Sur 41 Sur 0 -- -- 40
2021-02-19 14:00:00 16.1 24 Sur 45 Sur 0 -- -- 43
2021-02-19 13:00:00 15.5 20 Sur 36 Sudoeste 0 -- -- 43
2021-02-19 12:00:00 14.5 19 Sur 32 Sur 0 -- -- 49
2021-02-19 11:00:00 13.2 5 Sur 13 Sur 0 -- -- 59
2021-02-19 10:00:00 9.5 0 Calma 3 Sudeste 0 -- -- 77
2021-02-19 09:00:00 3.2 0 Calma 4 Este 0 -- -- 94
2021-02-19 08:00:00 1 0 Calma 5 Noroeste 0 -- -- 94
2021-02-19 07:00:00 3.9 3 Noroeste 5 Oeste 0 -- -- 85
2021-02-19 06:00:00 1.4 2 Norte 4 Norte 0 -- -- 94
2021-02-19 05:00:00 2.1 0 Calma 4 Sudoeste 0 -- -- 90
2021-02-19 04:00:00 3.1 0 Calma 4 Nordeste 0 -- -- 86
2021-02-19 03:00:00 6.1 3 Este 6 Sur 0 -- -- 76
2021-02-19 02:00:00 8.7 7 Sur 13 Sur 0 -- -- 66
2021-02-19 01:00:00 9.5 4 Sur 13 Sur 0 -- -- 63
2021-02-19 00:00:00 9.5 7 Sur 14 Sudoeste 0 -- -- 62
2021-02-18 23:00:00 9.3 4 Sur 9 Sur 0 -- -- 63
2021-02-18 22:00:00 10.1 5 Sudoeste 18 Sudoeste 0 -- -- 64
2021-02-18 21:00:00 10.5 9 Sudoeste 18 Sudoeste 0 -- -- 64
2021-02-18 20:00:00 10.8 8 Sudoeste 18 Oeste 0 -- -- 60
2021-02-18 19:00:00 11.3 8 Sudoeste 25 Sudoeste 0 -- -- 58
2021-02-18 18:00:00 13 15 Sudoeste 38 Sudoeste 0 -- -- 55
2021-02-18 17:00:00 14.2 21 Sudoeste 45 Sudoeste 0 -- -- 50
2021-02-18 16:00:00 14.7 23 Sudoeste 49 Sudoeste 0 -- -- 47
2021-02-18 15:00:00 14.7 24 Sudoeste 55 Sudoeste 0 -- -- 46
2021-02-18 14:00:00 14.9 23 Sudoeste 51 Sudoeste 0 -- -- 42
2021-02-18 13:00:00 14.7 24 Sudoeste 45 Sudoeste 0 -- -- 43
2021-02-18 12:00:00 14.2 18 Sudoeste 33 Sudoeste 0 -- -- 44
2021-02-18 11:00:00 11.7 12 Sudoeste 24 Sudoeste 0 -- -- 54
2021-02-18 10:00:00 7.3 5 Oeste 12 Oeste 0 -- -- 76
2021-02-18 09:00:00 6.5 4 Oeste 12 Sudoeste 0 -- -- 73
2021-02-18 08:00:00 5.3 3 Sudoeste 7 Sudoeste 0 -- -- 78
2021-02-18 07:00:00 3.3 3 Oeste 7 Oeste 0 -- -- 91
2021-02-18 06:00:00 2.3 4 Oeste 6 Oeste 0 -- -- 97
2021-02-18 05:00:00 3.5 4 Noroeste 6 Oeste 0 -- -- 98
2021-02-18 04:00:00 4.5 4 Oeste 8 Oeste 0 -- -- 89
2021-02-18 03:00:00 4.5 6 Oeste 11 Oeste 0 -- -- 94
2021-02-18 02:00:00 0.6 0 Calma 4 Sur 0 -- -- 100
2021-02-18 01:00:00 1.3 0 Calma 5 Este 0 -- -- 100
2021-02-18 00:00:00 2.1 0 Calma 4 Sudeste 0 -- -- 99
2021-02-17 23:00:00 3.6 0 Calma 3 Sudeste 0 -- -- 98
2021-02-17 22:00:00 5.6 0 Calma 10 Nordeste 0 -- -- 98
2021-02-17 21:00:00 4.5 6 Este 8 Este 0 -- -- 96
2021-02-17 20:00:00 6.4 2 Nordeste 6 Este 0 -- -- 93
2021-02-17 19:00:00 11.3 3 Sur 12 Sudoeste 0 -- -- 75
2021-02-17 18:00:00 14.7 5 Sudoeste 16 Sudoeste 0 -- -- 63
2021-02-17 17:00:00 15.7 9 Sudoeste 21 Sudoeste 0 -- -- 59
2021-02-17 16:00:00 14.8 13 Sudoeste 29 Oeste 0 -- -- 61
2021-02-17 15:00:00 14.9 10 Oeste 28 Oeste 0 -- -- 63
2021-02-17 14:00:00 14.7 14 Sudoeste 32 Sudoeste 0 -- -- 60
2021-02-17 13:00:00 13.1 10 Sur 21 Sur 0 -- -- 70
2021-02-17 12:00:00 12.1 7 Sudoeste 19 Sudoeste 0 -- -- 74
2021-02-17 11:00:00 12.3 3 Sudoeste 5 Sur 0 -- -- 77
2021-02-17 10:00:00 9.3 0 Calma 5 Nordeste 0 -- -- 92
2021-02-17 09:00:00 6.9 2 Nordeste 5 Este 0 -- -- 99
2021-02-17 08:00:00 5.9 2 Este 3 Este 0 -- -- 99
2021-02-17 07:00:00 5.1 3 Este 6 Este 0 -- -- 99
2021-02-17 06:00:00 5.4 2 Este 5 Este 0 -- -- 99
2021-02-17 05:00:00 5.2 2 Nordeste 5 Este 0 -- -- 99
2021-02-17 04:00:00 5.1 3 Este 4 Nordeste 0 -- -- 98
2021-02-17 03:00:00 5.4 0 Calma 5 Este 0 -- -- 98
2021-02-17 02:00:00 3.9 3 Este 6 Sudeste 0 -- -- 97
2021-02-17 01:00:00 5.5 3 Este 4 Este 0 -- -- 96
2021-02-17 00:00:00 8.1 0 Calma 4 Oeste 0 -- -- 85
2021-02-16 23:00:00 9.7 4 Sudoeste 10 Oeste 0 -- -- 82
2021-02-16 22:00:00 10 4 Sudoeste 14 Oeste 0 -- -- 80
2021-02-16 21:00:00 10.3 3 Sudoeste 12 Sudoeste 0 -- -- 78
2021-02-16 20:00:00 10.8 3 Sudoeste 10 Oeste 0 -- -- 73
2021-02-16 19:00:00 11.3 6 Sudoeste 19 Sudoeste 0 -- -- 69
2021-02-16 18:00:00 12.2 10 Sudoeste 21 Sudoeste 0 -- -- 65
2021-02-16 17:00:00 13 9 Oeste 31 Sudoeste 0 -- -- 61
2021-02-16 16:00:00 13.8 17 Oeste 35 Sudoeste 0 -- -- 55
2021-02-16 15:00:00 14.4 15 Sudoeste 33 Oeste 0 -- -- 54
2021-02-16 14:00:00 13.9 20 Sudoeste 36 Oeste 0 -- -- 58
2021-02-16 13:00:00 12.6 18 Oeste 33 Oeste 0 -- -- 60
2021-02-16 12:00:00 11.9 16 Oeste 30 Sudoeste 0 -- -- 62
2021-02-16 11:00:00 10.2 14 Oeste 26 Oeste 0 -- -- 70
2021-02-16 10:00:00 2.2 0 Calma 5 Este 0 -- -- 97
2021-02-16 09:00:00 -0.5 4 Sudeste 5 Sudeste 0 -- -- 98
2021-02-16 08:00:00 -1.9 0 Calma 5 Sudeste 0 -- -- 99
2021-02-16 07:00:00 -0.9 3 Sudeste 10 Este 0 -- -- 100
2021-02-16 06:00:00 -2.1 4 Este 6 Este 0 -- -- 99
2021-02-16 05:00:00 -2 3 Sudeste 6 Sudeste 0 -- -- 98
2021-02-16 04:00:00 -1.7 3 Sudeste 7 Sudeste 0 -- -- 98
2021-02-16 03:00:00 -1.4 5 Este 8 Este 0 -- -- 97
2021-02-16 02:00:00 0 2 Sudeste 8 Este 0 -- -- 96
2021-02-16 01:00:00 -0.4 6 Este 8 Este 0 -- -- 95
2021-02-16 00:00:00 0.8 5 Este 9 Este 0 -- -- 95
2021-02-15 23:00:00 1.9 2 Este 5 Este 0 -- -- 95
2021-02-15 22:00:00 2.9 3 Sudeste 6 Oeste 0 -- -- 91
2021-02-15 21:00:00 7.4 4 Oeste 9 Sudoeste 0 -- -- 74
2021-02-15 20:00:00 9.6 6 Oeste 13 Oeste 0 -- -- 66
2021-02-15 19:00:00 12.3 8 Sudoeste 21 Sur 0 -- -- 56
2021-02-15 18:00:00 15.7 11 Sur 26 Sur 0 -- -- 44
2021-02-15 17:00:00 18.6 8 Sudoeste 21 Sur 0 -- -- 39
2021-02-15 16:00:00 19 10 Sur 18 Sur 0 -- -- 35
2021-02-15 15:00:00 19.2 8 Sudeste 15 Este 0 -- -- 36
2021-02-15 14:00:00 18.3 5 Nordeste 13 Nordeste 0 -- -- 43
2021-02-15 13:00:00 16 4 Oeste 9 Sudoeste 0 -- -- 51
2021-02-15 12:00:00 14.7 0 Calma 7 Nordeste 0 -- -- 58
2021-02-15 11:00:00 10 3 Este 7 Nordeste 0 -- -- 72
2021-02-15 10:00:00 6 0 Calma 4 Sudeste 0.2 -- -- 93
2021-02-15 09:00:00 -1.1 3 Este 5 Este 0 -- -- 100
2021-02-15 08:00:00 -2.9 4 Este 6 Este 0 -- -- 100
2021-02-15 07:00:00 -2.2 0 Calma 9 Este 0 -- -- 100
2021-02-15 06:00:00 -1.8 5 Este 8 Este 0 -- -- 100
2021-02-15 05:00:00 -2.2 3 Sudeste 6 Este 0 -- -- 100
2021-02-15 04:00:00 -1.5 4 Sudeste 8 Este 0 -- -- 100
2021-02-15 03:00:00 -1.5 6 Este 8 Este 0 -- -- 99
2021-02-15 02:00:00 0.1 4 Este 6 Sudeste 0 -- -- 100
2021-02-15 01:00:00 0.8 3 Sudeste 6 Este 0 -- -- 99
2021-02-15 00:00:00 1.5 4 Este 6 Nordeste 0 -- -- 99
2021-02-14 23:00:00 2.9 3 Este 6 Sudeste 0 -- -- 96
2021-02-14 22:00:00 5.3 0 Calma 5 Este 0 -- -- 93
2021-02-14 21:00:00 5.4 2 Nordeste 4 Este 0 -- -- 95
2021-02-14 20:00:00 8.2 0 Calma 9 Este 0 -- -- 89
2021-02-14 19:00:00 10 4 Este 7 Nordeste 0 -- -- 82
2021-02-14 18:00:00 15.7 4 Noroeste 7 Oeste 0 -- -- 57
2021-02-14 17:00:00 16.1 5 Oeste 11 Oeste 0 -- -- 51
2021-02-14 16:00:00 16.7 6 Oeste 15 Oeste 0 -- -- 49
2021-02-14 15:00:00 17.1 7 Sudoeste 17 Oeste 0 -- -- 49
2021-02-14 14:00:00 16.1 9 Sudoeste 17 Sudoeste 0 -- -- 51
2021-02-14 13:00:00 14.7 9 Sur 15 Sur 0 -- -- 59
2021-02-14 12:00:00 13.3 5 Nordeste 10 Nordeste 0 -- -- 69
2021-02-14 11:00:00 9.5 4 Este 8 Este 0 -- -- 76
2021-02-14 10:00:00 4.8 5 Este 8 Este 0 -- -- 98
2021-02-14 09:00:00 1.3 2 Sudeste 6 Este 0 -- -- 100
2021-02-14 08:00:00 -2.1 5 Este 10 Este 0 -- -- 100
2021-02-14 07:00:00 -2.6 6 Este 9 Este 0 -- -- 100
2021-02-14 06:00:00 -2.7 5 Este 7 Este 0 -- -- 100
2021-02-14 05:00:00 -1.8 2 Este 6 Este 0 -- -- 100
2021-02-14 04:00:00 -1 4 Este 10 Este 0 -- -- 100
2021-02-14 03:00:00 -1.4 5 Este 7 Este 0 -- -- 100
2021-02-14 02:00:00 0.1 0 Calma 4 Sudeste 0 -- -- 100
2021-02-14 01:00:00 0.9 2 Este 5 Este 0 -- -- 100
2021-02-14 00:00:00 0.9 4 Este 5 Este 0 -- -- 100
2021-02-13 23:00:00 2.2 3 Nordeste 6 Este 0 -- -- 100
2021-02-13 22:00:00 3.1 3 Este 5 Este 0 -- -- 97
2021-02-13 21:00:00 5.2 3 Nordeste 8 Este 0 -- -- 98
2021-02-13 20:00:00 7.4 2 Sur 8 Oeste 0 -- -- 93
2021-02-13 19:00:00 7.9 2 Sudeste 10 Oeste 0 -- -- 87
2021-02-13 18:00:00 12.4 8 Oeste 18 Oeste 0 -- -- 68
2021-02-13 17:00:00 14 8 Oeste 16 Oeste 0 -- -- 62
2021-02-13 16:00:00 13.7 7 Oeste 21 Oeste 0 -- -- 58
2021-02-13 15:00:00 12.9 10 Oeste 24 Sudoeste 0 -- -- 63
2021-02-13 14:00:00 12.4 9 Oeste 19 Oeste 0 -- -- 66
2021-02-13 13:00:00 9.8 7 Sudoeste 22 Oeste 0 -- -- 78
2021-02-13 08:00:00 -- -- -- -- -- -- -- -- --
2021-02-13 07:00:00 -- -- -- -- -- -- -- -- --
2021-02-13 06:00:00 -- -- -- -- -- -- -- -- --
2021-02-13 05:00:00 -- -- -- -- -- -- -- -- --
2021-02-13 04:00:00 -1.1 2 Sudeste 5 Este 0 -- -- 100
2021-02-13 03:00:00 -0.7 0 Calma 3 Este 0 -- -- 100
2021-02-13 02:00:00 0.1 0 Calma 6 Oeste 0 -- -- 100
2021-02-13 01:00:00 0.6 0 Calma 4 Sur 0 -- -- 100
2021-02-13 00:00:00 -0.3 2 Este 4 Este 0 -- -- 99
2021-02-12 23:00:00 0.7 3 Este 5 Sudeste 0 -- -- 99
2021-02-12 22:00:00 3 0 Calma 5 Sur 0 -- -- 100
2021-02-12 21:00:00 3.5 0 Calma 8 Sur 0 -- -- 95
2021-02-12 20:00:00 6.3 5 Oeste 8 Oeste 0 -- -- 92
2021-02-12 19:00:00 8.8 4 Oeste 19 Oeste 0 -- -- 83
2021-02-12 18:00:00 11.8 13 Oeste 25 Oeste 0 -- -- 71
2021-02-12 17:00:00 11.4 14 Oeste 28 Oeste 0 -- -- 72
2021-02-12 16:00:00 11.5 13 Oeste 30 Oeste 0 -- -- 72
2021-02-12 15:00:00 11.7 17 Oeste 36 Oeste 0 -- -- 70
2021-02-12 14:00:00 12.5 19 Oeste 38 Oeste 0 -- -- 70
2021-02-12 13:00:00 11.4 18 Oeste 37 Oeste 0 -- -- 75
2021-02-12 12:00:00 9.4 18 Oeste 37 Oeste 0 -- -- 83
2021-02-12 11:00:00 7.9 17 Oeste 33 Sudoeste 0 -- -- 91
2021-02-12 10:00:00 7.3 12 Sudoeste 28 Oeste 0 -- -- 94
2021-02-12 09:00:00 7.2 10 Oeste 32 Oeste 0 -- -- 95
2021-02-12 08:00:00 7.2 11 Sudoeste 27 Oeste 0 -- -- 95
2021-02-12 07:00:00 8.4 16 Sudoeste 29 Sudoeste 0.2 -- -- 98
2021-02-12 06:00:00 8.5 11 Sudoeste 30 Sudoeste 0 -- -- 99
2021-02-12 05:00:00 8.2 7 Sudoeste 15 Sudoeste 0.8 -- -- 100
2021-02-12 04:00:00 8.2 9 Sudoeste 25 Oeste 2.4 -- -- 99
2021-02-12 03:00:00 8.1 12 Oeste 23 Oeste 0.8 -- -- 96
2021-02-12 02:00:00 7.1 3 Oeste 9 Oeste 0 -- -- 98
2021-02-12 01:00:00 6.5 2 Oeste 4 Oeste 0 -- -- 100
2021-02-12 00:00:00 5.1 2 Nordeste 4 Nordeste 0 -- -- 100
2021-02-11 23:00:00 5.6 0 Calma 4 Nordeste 0 -- -- 100
2021-02-11 22:00:00 6.6 3 Nordeste 4 Nordeste 0 -- -- 99
2021-02-11 21:00:00 7.4 0 Calma 8 Sudoeste 0 -- -- 95
2021-02-11 20:00:00 9.1 3 Oeste 8 Sudoeste 0 -- -- 92
2021-02-11 19:00:00 11.2 5 Sudoeste 18 Sudoeste 0 -- -- 86
2021-02-11 18:00:00 12.9 10 Sudoeste 23 Sudoeste 0 -- -- 81
2021-02-11 17:00:00 13.2 4 Sudoeste 18 Oeste 0 -- -- 85
2021-02-11 16:00:00 13.4 9 Sudoeste 22 Sudoeste 0 -- -- 87
2021-02-11 15:00:00 12 5 Sudoeste 14 Sudoeste 0.4 -- -- 95
2021-02-11 14:00:00 12.3 10 Sudoeste 19 Sudoeste 0 -- -- 89
2021-02-11 13:00:00 12.6 7 Sudoeste 21 Sudoeste 0 -- -- 89
2021-02-11 12:00:00 12.1 8 Oeste 21 Sudoeste 0 -- -- 90
2021-02-11 11:00:00 11.3 9 Sudoeste 17 Sudoeste 0 -- -- 93
2021-02-11 10:00:00 9.6 2 Oeste 5 Oeste 0 -- -- 99
2021-02-11 09:00:00 7.2 0 Calma 2 Sur 0 -- -- 100
2021-02-11 08:00:00 6.7 0 Calma 4 Nordeste 0 -- -- 100
2021-02-11 07:00:00 6.6 0 Calma 5 Nordeste 0 -- -- 100
2021-02-11 06:00:00 6.2 5 Nordeste 6 Nordeste 0.4 -- -- 100
2021-02-11 05:00:00 5.9 2 Nordeste 5 Este 0.4 -- -- 100
2021-02-11 04:00:00 5.8 3 Este 5 Este 0 -- -- 99
2021-02-11 03:00:00 5 0 Calma 3 Nordeste 0.2 -- -- 99
2021-02-11 02:00:00 4.3 2 Este 5 Este 0.2 -- -- 98
2021-02-11 01:00:00 4.6 0 Calma 8 Noroeste 0.2 -- -- 95
2021-02-11 00:00:00 3.7 0 Calma 4 Noroeste 0 -- -- 98
2021-02-10 23:00:00 1.6 0 Calma 5 Este 0 -- -- 98
2021-02-10 22:00:00 1.7 2 Nordeste 5 Nordeste 0 -- -- 95
2021-02-10 21:00:00 3.5 0 Calma 3 Sudeste 0 -- -- 91
2021-02-10 20:00:00 5.2 0 Calma 6 Sur 0 -- -- 85
2021-02-10 19:00:00 7.2 4 Sudoeste 10 Sudoeste 0 -- -- 74
2021-02-10 18:00:00 9.9 9 Sudoeste 24 Sudoeste 0 -- -- 60
2021-02-10 17:00:00 11.2 18 Oeste 31 Sudoeste 0 -- -- 57
2021-02-10 16:00:00 11.5 17 Sudoeste 38 Sudoeste 0 -- -- 58
2021-02-10 15:00:00 11.1 15 Sudoeste 33 Sudoeste 0 -- -- 59
2021-02-10 14:00:00 10.2 17 Sudoeste 31 Sudoeste 0 -- -- 61
2021-02-10 13:00:00 9.7 17 Sudoeste 31 Sudoeste 0 -- -- 65
2021-02-10 12:00:00 7.5 16 Oeste 36 Oeste 0 -- -- 78
2021-02-10 11:00:00 7 18 Oeste 36 Oeste 0 -- -- 79
2021-02-10 10:00:00 5.9 14 Oeste 36 Oeste 0 -- -- 88
2021-02-10 09:00:00 4.6 14 Oeste 31 Oeste 0 -- -- 94
2021-02-10 08:00:00 4.2 13 Oeste 31 Oeste 0 -- -- 96
2021-02-10 07:00:00 3.9 14 Sudoeste 32 Oeste 0 -- -- 97
2021-02-10 06:00:00 3.5 11 Sudoeste 26 Sudoeste 0 -- -- 98
2021-02-10 05:00:00 3.8 14 Sudoeste 35 Oeste 0 -- -- 97
2021-02-10 04:00:00 3.3 14 Sudoeste 46 Sudoeste 3.8 -- -- 98
2021-02-10 03:00:00 3.7 5 Sudoeste 43 Sudoeste 2 -- -- 99
2021-02-10 02:00:00 4.1 21 Sudoeste 50 Sudoeste 2.2 -- -- 96
2021-02-10 01:00:00 4.5 10 Sudoeste 29 Sudoeste 0 -- -- 96
2021-02-10 00:00:00 4.6 20 Sudoeste 34 Oeste 0.4 -- -- 98
2021-02-09 23:00:00 4.5 8 Sudoeste 32 Oeste 0.6 -- -- 99
2021-02-09 22:00:00 3.9 7 Sudoeste 22 Sur 1 -- -- 99
2021-02-09 21:00:00 3.2 6 Sur 13 Sur 0 -- -- 99
2021-02-09 20:00:00 3.2 5 Sudoeste 28 Sudoeste 2.4 -- -- 99
2021-02-09 19:00:00 2.9 15 Noroeste 33 Noroeste 3.8 -- -- 96
2021-02-09 18:00:00 5.3 0 Calma 20 Sudoeste 0 -- -- 90
2021-02-09 17:00:00 5.2 8 Sudoeste 31 Sur 0 -- -- 91
2021-02-09 16:00:00 5.2 12 Sudoeste 27 Sur 0 -- -- 92
2021-02-09 15:00:00 3.7 8 Sur 42 Oeste 1 -- -- 97
2021-02-09 14:00:00 3.8 20 Oeste 54 Sudoeste 3.4 -- -- 95
2021-02-09 13:00:00 7 8 Oeste 23 Sur 2.2 -- -- 98
2021-02-09 12:00:00 7.2 12 Sudoeste 22 Sur 0.8 -- -- 93
2021-02-09 11:00:00 6.7 6 Sudoeste 19 Sudoeste 1 -- -- 96
2021-02-09 10:00:00 6.3 8 Sur 22 Sur 0.2 -- -- 94
2021-02-09 09:00:00 6 14 Sur 30 Sur 0 -- -- 93
2021-02-09 08:00:00 5.1 4 Sur 16 Sur 0.2 -- -- 97
2021-02-09 07:00:00 4.9 9 Sur 18 Sudoeste 1 -- -- 97
2021-02-09 06:00:00 4.3 9 Sur 18 Sur 1.2 -- -- 99
2021-02-09 05:00:00 3.6 2 Sudeste 7 Sudeste 1.2 -- -- 98
2021-02-09 04:00:00 3.7 6 Sur 23 Sudoeste 1.6 -- -- 98
2021-02-09 03:00:00 4.2 10 Sudoeste 35 Sudoeste 1.4 -- -- 96
2021-02-09 02:00:00 5.7 13 Sudoeste 30 Sudoeste 0 -- -- 90
2021-02-09 01:00:00 5.7 18 Sudoeste 33 Sudoeste 0 -- -- 91
2021-02-09 00:00:00 5.9 12 Sudoeste 31 Sudoeste 0 -- -- 93
2021-02-08 23:00:00 6.1 14 Sudoeste 25 Sudoeste 0 -- -- 93
2021-02-08 22:00:00 6 13 Sudoeste 27 Sudoeste 0.2 -- -- 96
2021-02-08 21:00:00 6.4 14 Sudoeste 27 Sudoeste 0 -- -- 94
2021-02-08 20:00:00 6.3 13 Sudoeste 30 Oeste 0 -- -- 94
2021-02-08 19:00:00 6.6 16 Oeste 30 Oeste 0 -- -- 91
2021-02-08 18:00:00 6.2 16 Sudoeste 39 Sudoeste 0 -- -- 93
2021-02-08 17:00:00 6.2 15 Sudoeste 42 Oeste 0.2 -- -- 92
2021-02-08 16:00:00 5.8 19 Sudoeste 41 Oeste 0.8 -- -- 93
2021-02-08 15:00:00 6.1 14 Sudoeste 34 Sudoeste 0.2 -- -- 90
2021-02-08 14:00:00 6.7 19 Sudoeste 43 Oeste 0 -- -- 84
2021-02-08 13:00:00 6.7 18 Sudoeste 42 Sudoeste 0 -- -- 82
2021-02-08 12:00:00 6.3 17 Oeste 41 Oeste 0 -- -- 88
2021-02-08 11:00:00 5.4 15 Sudoeste 31 Sudoeste 0.6 -- -- 97
2021-02-08 10:00:00 4.6 17 Sudoeste 32 Oeste 0.4 -- -- 96
2021-02-08 09:00:00 4.9 13 Sudoeste 26 Sudoeste 0 -- -- 96
2021-02-08 08:00:00 5 13 Sudoeste 30 Sudoeste 0.2 -- -- 98
2021-02-08 07:00:00 5.3 11 Sudoeste 18 Sudoeste 0 -- -- 99
2021-02-08 06:00:00 5.2 8 Sudoeste 19 Sudoeste 0.2 -- -- 99
2021-02-08 05:00:00 5.6 7 Sudoeste 15 Sudoeste 2.4 -- -- 99
2021-02-08 04:00:00 5.7 4 Sudoeste 10 Sur 1.8 -- -- 99
2021-02-08 03:00:00 5.8 5 Sudoeste 21 Sudoeste 0.6 -- -- 99
2021-02-08 02:00:00 5.1 4 Sudoeste 10 Sudoeste 2.6 -- -- 100
2021-02-08 01:00:00 4.6 0 Calma 3 Sur 0.6 -- -- 100
2021-02-08 00:00:00 4.3 0 Calma 4 Sur 0 -- -- 100
2021-02-07 23:00:00 4 0 Calma 4 Sur 0.2 -- -- 99
2021-02-07 22:00:00 3.9 3 Sur 12 Sudoeste 0 -- -- 99
2021-02-07 21:00:00 3.6 9 Sudoeste 19 Sudoeste 0.2 -- -- 99
2021-02-07 20:00:00 3.4 10 Sudoeste 24 Sudoeste 0.8 -- -- 98
2021-02-07 19:00:00 3.1 10 Sudoeste 26 Sudoeste 1.4 -- -- 97
2021-02-07 18:00:00 3.3 9 Sudoeste 26 Sudoeste 0.8 -- -- 94
2021-02-07 17:00:00 4.5 14 Sudoeste 36 Sudoeste 0.2 -- -- 88
2021-02-07 16:00:00 8 14 Sudoeste 30 Sudoeste 0 -- -- 68
2021-02-07 15:00:00 7.6 14 Sudoeste 28 Oeste 0 -- -- 65
2021-02-07 14:00:00 8.2 13 Sudoeste 25 Sudoeste 0 -- -- 66
2021-02-07 13:00:00 7.2 13 Oeste 22 Sudoeste 0 -- -- 70
2021-02-07 12:00:00 7.4 8 Sur 17 Sur 0 -- -- 70
2021-02-07 11:00:00 7.3 5 Sudoeste 10 Oeste 0 -- -- 69
2021-02-07 10:00:00 3.7 2 Este 4 Este 0 -- -- 94
2021-02-07 09:00:00 0.5 3 Este 4 Sudeste 0 -- -- 98
2021-02-07 08:00:00 0.3 0 Calma 4 Norte 0 -- -- 97
2021-02-07 07:00:00 0.9 4 Norte 6 Norte 0 -- -- 96
2021-02-07 06:00:00 1.7 2 Noroeste 6 Noroeste 0 -- -- 93
2021-02-07 05:00:00 2 0 Calma 10 Nordeste 0 -- -- 91
2021-02-07 04:00:00 2.5 4 Nordeste 9 Norte 0 -- -- 89
2021-02-07 03:00:00 3.1 5 Norte 23 Norte 0 -- -- 87
2021-02-07 02:00:00 3.3 13 Norte 24 Nordeste 0 -- -- 86
2021-02-07 01:00:00 3.5 17 Norte 30 Norte 0 -- -- 85
2021-02-07 00:00:00 3.9 14 Norte 21 Norte 0 -- -- 85
2021-02-06 23:00:00 4.2 12 Norte 31 Norte 0 -- -- 89
2021-02-06 22:00:00 4.2 19 Norte 27 Norte 0 -- -- 88
2021-02-06 21:00:00 3.7 4 Norte 16 Norte 0 -- -- 92
2021-02-06 20:00:00 4.2 13 Norte 31 Norte 0 -- -- 88
2021-02-06 19:00:00 5.2 24 Norte 37 Norte 0 -- -- 87
2021-02-06 18:00:00 5.6 21 Norte 39 Norte 0 -- -- 87
2021-02-06 17:00:00 5.9 26 Norte 42 Norte 0 -- -- 85
2021-02-06 16:00:00 6.8 23 Norte 35 Norte 0 -- -- 86
2021-02-06 15:00:00 7.5 25 Norte 35 Norte 0 -- -- 85
2021-02-06 14:00:00 7.6 22 Norte 32 Norte 0 -- -- 89
2021-02-06 13:00:00 7.4 21 Norte 27 Norte 0.4 -- -- 93
2021-02-06 12:00:00 7.5 15 Norte 19 Norte 0 -- -- 91
2021-02-06 11:00:00 7.6 5 Nordeste 12 Noroeste 0.4 -- -- 95
2021-02-06 10:00:00 7.1 6 Noroeste 13 Noroeste 0 -- -- 94
2021-02-06 09:00:00 6.1 0 Calma 7 Noroeste 0 -- -- 98
2021-02-06 08:00:00 6 3 Oeste 6 Oeste 0.2 -- -- 99
2021-02-06 07:00:00 6 0 Calma 7 Oeste 0 -- -- 99
2021-02-06 06:00:00 6.2 4 Oeste 8 Sudoeste 0 -- -- 99
2021-02-06 05:00:00 6.2 2 Sur 8 Nordeste 0 -- -- 99
2021-02-06 04:00:00 6.1 2 Este 9 Nordeste 0.2 -- -- 100
2021-02-06 03:00:00 6.4 0 Calma 9 Nordeste 0 -- -- 99
2021-02-06 02:00:00 6.7 5 Este 8 Este 0 -- -- 99
2021-02-06 01:00:00 6.8 5 Este 18 Nordeste 0.2 -- -- 98
2021-02-06 00:00:00 7.8 15 Este 39 Sudeste 1.8 -- -- 95
2021-02-05 23:00:00 8.7 18 Sudeste 30 Sudeste 1.4 -- -- 95
2021-02-05 22:00:00 7.4 7 Este 13 Este 0 -- -- 95
2021-02-05 21:00:00 7.2 3 Nordeste 22 Norte 0 -- -- 94
2021-02-05 20:00:00 8.7 20 Norte 29 Norte 0 -- -- 91
2021-02-05 19:00:00 10 23 Norte 32 Norte 0 -- -- 86
2021-02-05 18:00:00 11.6 14 Norte 26 Norte 0 -- -- 81
2021-02-05 17:00:00 13 17 Norte 31 Norte 0 -- -- 74
2021-02-05 16:00:00 14.8 17 Norte 24 Nordeste 0 -- -- 67
2021-02-05 15:00:00 15.4 17 Norte 25 Nordeste 0 -- -- 62
2021-02-05 14:00:00 14.3 17 Norte 23 Norte 0 -- -- 65
2021-02-05 13:00:00 14 11 Norte 18 Noroeste 0 -- -- 67
2021-02-05 12:00:00 12.6 13 Noroeste 28 Noroeste 0 -- -- 76
2021-02-05 11:00:00 9.4 22 Noroeste 30 Noroeste 0 -- -- 90
2021-02-05 10:00:00 7.5 4 Sudeste 15 Este 0 -- -- 94
2021-02-05 09:00:00 7 12 Este 17 Este 0 -- -- 94
2021-02-05 08:00:00 4.8 7 Este 17 Sudeste 0 -- -- 98
2021-02-05 07:00:00 4.8 4 Oeste 9 Oeste 0 -- -- 100
2021-02-05 06:00:00 5.2 4 Oeste 10 Oeste 0 -- -- 98
2021-02-05 05:00:00 5.4 4 Este 12 Nordeste 0 -- -- 97
2021-02-05 04:00:00 5.4 8 Nordeste 13 Este 0 -- -- 95
2021-02-05 03:00:00 5.7 7 Nordeste 17 Norte 0 -- -- 97
2021-02-05 02:00:00 5.2 6 Nordeste 15 Nordeste 0 -- -- 98
2021-02-05 01:00:00 5.6 10 Este 17 Nordeste 0 -- -- 99
2021-02-05 00:00:00 5.4 8 Nordeste 13 Nordeste 0 -- -- 99
2021-02-04 23:00:00 5.6 6 Este 14 Este 0 -- -- 98
2021-02-04 22:00:00 6 11 Este 17 Este 0.2 -- -- 98
2021-02-04 21:00:00 6.2 8 Este 14 Este 0 -- -- 97
2021-02-04 20:00:00 6.1 4 Norte 8 Norte 0 -- -- 96
2021-02-04 19:00:00 6.6 2 Oeste 16 Norte 0 -- -- 95
2021-02-04 18:00:00 7 12 Noroeste 27 Norte 0 -- -- 92
2021-02-04 17:00:00 7.4 24 Norte 33 Norte 0 -- -- 90
2021-02-04 16:00:00 7.9 22 Noroeste 30 Noroeste 0 -- -- 90
2021-02-04 15:00:00 9.5 19 Noroeste 26 Noroeste 0 -- -- 90
2021-02-04 14:00:00 13 4 Sudoeste 19 Nordeste 0 -- -- 77
2021-02-04 13:00:00 12.6 15 Nordeste 23 Norte 0 -- -- 82
2021-02-04 12:00:00 10.3 15 Norte 20 Norte 0 -- -- 90
2021-02-04 11:00:00 9.6 8 Nordeste 12 Norte 0 -- -- 94
2021-02-04 10:00:00 8.1 9 Nordeste 17 Este 0 -- -- 99
2021-02-04 09:00:00 7.2 8 Nordeste 13 Nordeste 0.2 -- -- 100
2021-02-04 08:00:00 7 4 Nordeste 8 Este 0 -- -- 100
2021-02-04 07:00:00 7 6 Este 10 Este 0 -- -- 100
2021-02-04 06:00:00 6.8 5 Este 6 Este 0 -- -- 100
2021-02-04 05:00:00 6.9 3 Nordeste 6 Este 0 -- -- 100
2021-02-04 04:00:00 7.1 4 Este 5 Este 0.2 -- -- 100
2021-02-04 03:00:00 7.2 0 Calma 2 Sudeste 0.2 -- -- 100
2021-02-04 02:00:00 7.8 2 Sudoeste 12 Sur 0.4 -- -- 99
2021-02-04 01:00:00 8 4 Sur 14 Sudoeste 0.4 -- -- 99
2021-02-04 00:00:00 8.3 7 Sudoeste 15 Sudoeste 0.4 -- -- 100
2021-02-03 23:00:00 8.6 4 Sudoeste 12 Sur 1 -- -- 100
2021-02-03 22:00:00 8.6 4 Sudoeste 9 Sudoeste 1.6 -- -- 99
2021-02-03 21:00:00 8.7 4 Sur 6 Sudoeste 2.6 -- -- 99
2021-02-03 20:00:00 8.8 0 Calma 8 Este 1 -- -- 98
2021-02-03 19:00:00 9.2 3 Sudeste 5 Noroeste 0 -- -- 94
2021-02-03 18:00:00 9.9 0 Calma 6 Sudeste 0.2 -- -- 96
2021-02-03 17:00:00 10.5 0 Calma 17 Oeste 0.2 -- -- 91
2021-02-03 16:00:00 10.6 3 Oeste 20 Sur 0.2 -- -- 91
2021-02-03 15:00:00 10.9 12 Sur 27 Sudoeste 0 -- -- 87
2021-02-03 14:00:00 11.4 14 Sudoeste 32 Sudoeste 0 -- -- 81
2021-02-03 13:00:00 11.9 15 Sudoeste 28 Sudoeste 0 -- -- 76
2021-02-03 12:00:00 10.5 10 Sudoeste 18 Sudoeste 0 -- -- 80
2021-02-03 11:00:00 9.6 7 Sudoeste 16 Sudoeste 0.2 -- -- 86
2021-02-03 10:00:00 7.9 3 Sudoeste 6 Sudoeste 0 -- -- 93
2021-02-03 09:00:00 6.9 4 Oeste 9 Oeste 0.2 -- -- 92
2021-02-03 08:00:00 6.6 5 Oeste 6 Oeste 0 -- -- 91
2021-02-03 07:00:00 5.4 0 Calma 5 Oeste 0 -- -- 98
2021-02-03 06:00:00 4.8 0 Calma 4 Noroeste 0 -- -- 100
2021-02-03 05:00:00 2.9 2 Este 4 Este 0 -- -- 100
2021-02-03 04:00:00 0.8 0 Calma 4 Sur 0 -- -- 98
2021-02-03 03:00:00 1.2 0 Calma 4 Este 0 -- -- 98
2021-02-03 02:00:00 2.5 0 Calma 8 Sudeste 0 -- -- 98
2021-02-03 01:00:00 3.2 3 Nordeste 9 Sudeste 0 -- -- 97
2021-02-03 00:00:00 4.3 9 Sudeste 15 Sudoeste 0 -- -- 89
2021-02-02 23:00:00 8.1 9 Sudoeste 31 Sudoeste 0 -- -- 82
2021-02-02 22:00:00 9.4 13 Sudoeste 28 Sudoeste 0 -- -- 79
2021-02-02 21:00:00 9.7 10 Sudoeste 27 Sudoeste 0 -- -- 80
2021-02-02 20:00:00 10 13 Sudoeste 28 Oeste 0 -- -- 80
2021-02-02 19:00:00 10.7 11 Oeste 27 Oeste 0 -- -- 79
2021-02-02 18:00:00 12 8 Sudoeste 17 Sudoeste 0 -- -- 76
2021-02-02 17:00:00 13 10 Sudoeste 23 Oeste 0 -- -- 72
2021-02-02 16:00:00 13.7 16 Oeste 33 Oeste 0 -- -- 70
2021-02-02 15:00:00 13.6 15 Oeste 35 Sudoeste 0 -- -- 68
2021-02-02 14:00:00 13.8 13 Sudoeste 28 Sudoeste 0 -- -- 69
2021-02-02 13:00:00 11.7 10 Sudoeste 21 Oeste 0 -- -- 79
2021-02-02 12:00:00 10.9 11 Sudoeste 24 Sudoeste 0 -- -- 84
2021-02-02 11:00:00 10.3 11 Sudoeste 23 Sudoeste 0 -- -- 87
2021-02-02 10:00:00 9.4 6 Sudoeste 16 Sudoeste 0 -- -- 95
2021-02-02 09:00:00 8.6 3 Sudoeste 14 Sur 0 -- -- 98
2021-02-02 08:00:00 8.8 4 Sur 10 Sur 0 -- -- 95
2021-02-02 07:00:00 8.6 3 Sudoeste 12 Sudoeste 0 -- -- 95
2021-02-02 06:00:00 8.8 8 Sudoeste 15 Sudoeste 0 -- -- 96
2021-02-02 05:00:00 8.6 6 Sudoeste 17 Sudoeste 0 -- -- 96
2021-02-02 04:00:00 9.5 8 Sudoeste 17 Sudoeste 0 -- -- 91
2021-02-02 03:00:00 9.5 4 Sudoeste 18 Sudoeste 0 -- -- 92
2021-02-02 02:00:00 9 5 Sudoeste 15 Sudoeste 0 -- -- 93
2021-02-02 01:00:00 8.2 4 Sudoeste 10 Sudoeste 0 -- -- 95
2021-02-02 00:00:00 7.5 3 Sudoeste 9 Sudoeste 0 -- -- 94
2021-02-01 23:00:00 7 3 Oeste 9 Oeste 0 -- -- 91
2021-02-01 22:00:00 6.7 3 Sur 13 Sudoeste 0 -- -- 90
2021-02-01 21:00:00 7.5 3 Sur 12 Sudoeste 0 -- -- 86
2021-02-01 20:00:00 9 6 Sudoeste 26 Sudoeste 0 -- -- 84
2021-02-01 19:00:00 10.3 12 Sudoeste 23 Sudoeste 0 -- -- 79
2021-02-01 18:00:00 11.7 16 Oeste 39 Sudoeste 0 -- -- 70
2021-02-01 17:00:00 12.1 13 Sudoeste 39 Sudoeste 0 -- -- 69
2021-02-01 16:00:00 11.6 15 Sudoeste 36 Sudoeste 0 -- -- 74
2021-02-01 15:00:00 11.8 14 Sudoeste 37 Oeste 0 -- -- 73
2021-02-01 14:00:00 11 18 Sudoeste 37 Oeste 0 -- -- 79
2021-02-01 13:00:00 10.9 15 Sudoeste 35 Sudoeste 0 -- -- 78
2021-02-01 12:00:00 10 15 Sudoeste 30 Sudoeste 0 -- -- 81
2021-02-01 11:00:00 9.1 14 Sudoeste 30 Sudoeste 0 -- -- 83
2021-02-01 10:00:00 7.9 11 Sudoeste 28 Sudoeste 0 -- -- 87
2021-02-01 09:00:00 7.2 15 Sudoeste 40 Sudoeste 0 -- -- 90
2021-02-01 08:00:00 7.1 13 Sudoeste 32 Sudoeste 0 -- -- 90
2021-02-01 07:00:00 7 10 Sudoeste 39 Sudoeste 0 -- -- 89
2021-02-01 06:00:00 7.4 14 Oeste 43 Oeste 0 -- -- 86
2021-02-01 05:00:00 7.7 21 Sudoeste 44 Sudoeste 0 -- -- 86
2021-02-01 04:00:00 8.1 15 Oeste 42 Sudoeste 0 -- -- 85
2021-02-01 03:00:00 8.3 23 Oeste 48 Oeste 0 -- -- 82
2021-02-01 02:00:00 9.1 28 Oeste 48 Oeste 0 -- -- 84
2021-02-01 01:00:00 9.5 26 Sudoeste 45 Oeste 0 -- -- 85
2021-02-01 00:00:00 9.5 15 Sudoeste 34 Sudoeste 0 -- -- 88